Time;durP1;ratioP1;P1;durP2;ratioP2;P2;SDS_P1;SDS_P2;PMS_P1;PMS_P2;Temp;Humidity;BMP_temperature;BMP_pressure;BME280_temperature;BME280_humidity;BME280_pressure;Samples;Min_cycle;Max_cycle;Signal;HPM_P1;HPM_P2
2023/10/23 00:00:25;;;;;;;442.70;187.73;;;;;;;;;;5052219;28;20219;-69
2023/10/23 00:02:51;;;;;;;453.80;193.13;;;;;;;;;;5053641;28;20717;-69
2023/10/23 00:05:17;;;;;;;428.60;179.53;;;;;;;;;;5051975;28;20248;-68
2023/10/23 00:07:43;;;;;;;408.30;168.27;;;;;;;;;;5052579;28;20260;-68
2023/10/23 00:10:10;;;;;;;426.00;174.93;;;;;;;;;;5048329;28;20333;-69
2023/10/23 00:12:35;;;;;;;433.37;184.33;;;;;;;;;;5051250;28;20213;-69
2023/10/23 00:15:02;;;;;;;445.33;187.00;;;11.40;99.90;;;;;;5054787;28;20447;-69
2023/10/23 00:17:28;;;;;;;449.07;185.60;;;;;;;;;;5058885;28;20291;-69
2023/10/23 00:19:54;;;;;;;420.43;174.87;;;;;;;;;;5052773;28;20594;-68
2023/10/23 00:22:20;;;;;;;432.13;181.87;;;;;;;;;;5051040;28;20246;-68
2023/10/23 00:24:46;;;;;;;432.00;186.03;;;11.30;99.90;;;;;;5049563;28;20272;-68
2023/10/23 00:27:12;;;;;;;427.47;183.87;;;;;;;;;;5050512;28;20207;-68
2023/10/23 00:29:37;;;;;;;389.23;156.80;;;;;;;;;;5078505;28;20228;-69
2023/10/23 00:32:03;;;;;;;435.70;188.53;;;;;;;;;;5060323;28;21160;-68
2023/10/23 00:34:29;;;;;;;414.10;169.73;;;;;;;;;;5048359;28;20302;-67
2023/10/23 00:36:55;;;;;;;440.47;185.63;;;;;;;;;;5049553;28;20218;-69
2023/10/23 00:39:21;;;;;;;420.10;174.13;;;;;;;;;;5052333;28;20279;-70
2023/10/23 00:41:47;;;;;;;427.00;176.27;;;;;;;;;;5051737;28;20320;-69
2023/10/23 00:44:14;;;;;;;431.90;182.87;;;;;;;;;;5059698;28;20218;-69
2023/10/23 00:46:40;;;;;;;387.87;158.37;;;;;;;;;;5053299;28;21128;-70
2023/10/23 00:49:06;;;;;;;417.93;177.93;;;;;;;;;;5053124;28;20238;-69
2023/10/23 00:51:32;;;;;;;406.23;170.57;;;;;;;;;;5050447;28;20762;-70
2023/10/23 00:53:58;;;;;;;413.20;172.73;;;;;;;;;;5057148;28;20189;-69
2023/10/23 00:56:24;;;;;;;422.30;178.73;;;;;;;;;;5050739;28;20284;-69
2023/10/23 00:58:50;;;;;;;422.40;176.97;;;;;;;;;;5049599;28;20214;-69
2023/10/23 01:01:16;;;;;;;414.70;177.13;;;11.20;99.90;;;;;;5053022;28;20251;-69
2023/10/23 01:03:43;;;;;;;406.73;171.60;;;;;;;;;;5055171;28;20235;-69
2023/10/23 01:06:09;;;;;;;419.00;176.80;;;;;;;;;;5049481;28;20191;-69
2023/10/23 01:08:35;;;;;;;407.27;170.13;;;;;;;;;;5052614;28;20194;-70
2023/10/23 01:11:01;;;;;;;439.53;187.47;;;;;;;;;;5053320;28;20226;-70
2023/10/23 01:13:27;;;;;;;419.07;174.17;;;;;;;;;;5052543;28;20210;-70
2023/10/23 01:15:53;;;;;;;408.80;200.67;;;;;;;;;;5060523;28;20544;-70
2023/10/23 01:18:20;;;;;;;413.23;168.27;;;;;;;;;;5048522;28;20673;-69
2023/10/23 01:20:46;;;;;;;421.50;172.33;;;;;;;;;;5045206;28;20183;-70
2023/10/23 01:23:12;;;;;;;438.37;183.53;;;;;;;;;;5049096;28;20225;-69
2023/10/23 01:25:38;;;;;;;411.27;168.53;;;;;;;;;;5046210;28;20289;-69
2023/10/23 01:28:04;;;;;;;430.33;179.80;;;;;;;;;;5057562;28;20210;-69
2023/10/23 01:30:30;;;;;;;423.00;175.70;;;;;;;;;;5050478;28;20234;-70
2023/10/23 01:32:56;;;;;;;414.27;169.33;;;;;;;;;;5049311;28;20247;-70
2023/10/23 01:35:22;;;;;;;424.50;174.53;;;;;;;;;;5050081;28;20230;-70
2023/10/23 01:37:48;;;;;;;402.93;163.13;;;;;;;;;;5052219;28;20706;-70
2023/10/23 01:40:14;;;;;;;421.13;178.17;;;;;;;;;;5044998;28;20246;-70
2023/10/23 01:42:42;;;;;;;426.57;178.03;;;;;;;;;;5049476;28;20222;-69
2023/10/23 01:45:08;;;;;;;414.13;174.33;;;;;;;;;;5047373;28;20201;-69
2023/10/23 01:47:34;;;;;;;394.30;160.57;;;;;;;;;;5049004;28;20195;-70
2023/10/23 01:50:00;;;;;;;424.43;179.00;;;;;;;;;;5057563;28;20755;-69
2023/10/23 01:52:26;;;;;;;411.43;168.17;;;;;;;;;;5058458;28;20210;-69
2023/10/23 01:54:52;;;;;;;425.57;209.83;;;;;;;;;;5049907;28;20349;-70
2023/10/23 01:57:18;;;;;;;456.27;192.03;;;;;;;;;;5049540;28;20211;-69
2023/10/23 01:59:44;;;;;;;430.77;177.87;;;;;;;;;;5054477;28;20747;-69
2023/10/23 02:02:10;;;;;;;428.03;177.47;;;;;;;;;;5046020;28;20207;-70
2023/10/23 02:04:38;;;;;;;387.27;157.63;;;;;;;;;;5050792;28;20647;-70
2023/10/23 02:07:04;;;;;;;431.20;179.40;;;;;;;;;;5048766;28;20234;-70
2023/10/23 02:09:30;;;;;;;430.07;179.40;;;;;;;;;;5051683;28;20203;-70
2023/10/23 02:11:56;;;;;;;439.07;178.07;;;;;;;;;;5046121;28;20298;-69
2023/10/23 02:14:23;;;;;;;427.80;173.97;;;;;;;;;;5050247;28;20222;-70
2023/10/23 02:16:49;;;;;;;430.27;172.37;;;;;;;;;;5048423;28;20218;-70
2023/10/23 02:19:15;;;;;;;447.53;186.87;;;;;;;;;;5050025;28;20213;-70
2023/10/23 02:21:41;;;;;;;404.73;162.53;;;;;;;;;;5051489;28;20534;-70
2023/10/23 02:24:07;;;;;;;462.17;198.53;;;;;;;;;;5051203;28;20180;-70
2023/10/23 02:26:33;;;;;;;421.10;169.63;;;;;;;;;;5052915;28;20899;-69
2023/10/23 02:29:00;;;;;;;417.17;166.80;;;;;;;;;;5047921;28;20263;-69
2023/10/23 02:31:26;;;;;;;408.73;165.50;;;;;;;;;;5050411;28;20215;-70
2023/10/23 02:33:52;;;;;;;447.90;184.37;;;;;;;;;;5048836;28;20225;-70
2023/10/23 02:36:18;;;;;;;476.13;202.97;;;;;;;;;;5051271;28;20218;-69
2023/10/23 02:38:44;;;;;;;397.63;159.57;;;;;;;;;;5048452;28;20198;-69
2023/10/23 02:41:10;;;;;;;435.83;177.50;;;;;;;;;;5056134;28;20725;-70
2023/10/23 02:43:36;;;;;;;427.13;175.00;;;;;;;;;;5046790;28;20219;-69
2023/10/23 02:46:04;;;;;;;417.37;167.37;;;;;;;;;;5049641;28;20214;-70
2023/10/23 02:48:30;;;;;;;399.43;158.07;;;;;;;;;;5045237;28;20215;-69
2023/10/23 02:50:56;;;;;;;420.47;170.20;;;;;;;;;;5052863;28;20194;-69
2023/10/23 02:53:22;;;;;;;436.80;180.50;;;;;;;;;;5043813;28;20724;-69
2023/10/23 02:55:49;;;;;;;443.20;185.60;;;;;;;;;;5049483;28;20221;-69
2023/10/23 02:58:15;;;;;;;445.50;183.97;;;;;;;;;;5050947;28;20281;-70
2023/10/23 03:00:42;;;;;;;425.97;175.97;;;;;;;;;;5055230;28;20217;-70
2023/10/23 03:03:08;;;;;;;452.20;188.13;;;;;;;;;;5056130;28;20727;-70
2023/10/23 03:05:34;;;;;;;464.70;194.63;;;;;;;;;;5057316;28;20629;-69
2023/10/23 03:08:00;;;;;;;443.13;182.50;;;;;;;;;;5051059;28;20211;-70
2023/10/23 03:10:26;;;;;;;437.00;177.53;;;;;;;;;;5057733;28;20214;-70
2023/10/23 03:12:52;;;;;;;445.77;184.60;;;;;;;;;;5053724;28;20207;-69
2023/10/23 03:15:18;;;;;;;478.27;206.67;;;;;;;;;;5048002;28;20221;-69
2023/10/23 03:17:44;;;;;;;406.73;165.00;;;;;;;;;;5051364;28;20262;-70
2023/10/23 03:20:11;;;;;;;427.50;178.17;;;10.60;99.90;;;;;;5052009;28;20218;-70
2023/10/23 03:22:37;;;;;;;428.87;174.87;;;;;;;;;;5055564;28;20309;-70
2023/10/23 03:25:03;;;;;;;433.63;176.33;;;;;;;;;;5052337;28;20341;-70
2023/10/23 03:27:29;;;;;;;464.93;199.70;;;;;;;;;;5052153;28;20241;-69
2023/10/23 03:29:55;;;;;;;416.37;171.17;;;10.50;99.90;;;;;;5055050;28;20638;-70
2023/10/23 03:32:21;;;;;;;434.70;180.93;;;;;;;;;;5050743;28;20222;-68
2023/10/23 03:34:46;;;;;;;426.83;179.57;;;;;;;;;;5056747;28;20293;-68
2023/10/23 03:37:12;;;;;;;396.13;161.40;;;;;;;;;;5051250;28;20229;-68
2023/10/23 03:39:38;;;;;;;439.10;181.93;;;;;;;;;;5049907;28;20313;-70
2023/10/23 03:42:04;;;;;;;399.20;160.87;;;;;;;;;;5057279;28;20509;-68
2023/10/23 03:44:30;;;;;;;451.87;187.10;;;;;;;;;;5055614;28;20202;-68
2023/10/23 03:46:56;;;;;;;443.33;187.53;;;;;;;;;;5051204;28;20214;-68
2023/10/23 03:49:22;;;;;;;449.40;186.03;;;;;;;;;;5050108;28;20207;-68
2023/10/23 03:51:48;;;;;;;430.30;175.90;;;;;;;;;;5055555;28;20580;-68
2023/10/23 03:54:14;;;;;;;444.47;185.30;;;;;;;;;;5051554;28;20179;-68
2023/10/23 03:56:40;;;;;;;411.57;164.00;;;;;;;;;;5051104;28;20668;-68
2023/10/23 03:59:06;;;;;;;419.43;167.50;;;;;;;;;;5052276;28;20306;-68
2023/10/23 04:01:32;;;;;;;481.37;202.37;;;;;;;;;;5052373;28;20719;-68
2023/10/23 04:03:58;;;;;;;429.33;173.33;;;;;;;;;;5053410;28;20213;-68
2023/10/23 04:06:24;;;;;;;449.77;186.63;;;;;;;;;;5051124;28;20215;-68
2023/10/23 04:08:53;;;;;;;444.67;182.83;;;;;;;;;;5049106;28;20280;-68
2023/10/23 04:11:19;;;;;;;441.97;184.40;;;;;;;;;;5048051;28;20219;-67
2023/10/23 04:13:45;;;;;;;413.50;166.37;;;;;;;;;;5048270;28;20219;-67
2023/10/23 04:16:12;;;;;;;432.53;176.27;;;;;;;;;;5051757;28;20319;-68
2023/10/23 04:18:37;;;;;;;433.13;175.27;;;;;;;;;;5054152;28;20219;-67
2023/10/23 04:21:05;;;;;;;432.27;175.97;;;10.00;99.90;;;;;;5056845;28;20199;-67
2023/10/23 04:23:31;;;;;;;439.17;177.03;;;;;;;;;;5052336;28;20183;-68
2023/10/23 04:25:57;;;;;;;413.27;167.97;;;;;;;;;;5051113;28;20214;-68
2023/10/23 04:28:23;;;;;;;462.07;197.37;;;;;;;;;;5053067;28;20222;-68
2023/10/23 04:30:49;;;;;;;404.20;160.57;;;10.00;99.90;;;;;;5053514;28;20246;-68
2023/10/23 04:33:16;;;;;;;433.23;181.83;;;;;;;;;;5051397;28;20395;-67
2023/10/23 04:35:43;;;;;;;423.70;170.30;;;;;;;;;;5052683;28;20191;-67
2023/10/23 04:38:08;;;;;;;434.00;182.07;;;;;;;;;;5052613;28;20272;-68
2023/10/23 04:40:34;;;;;;;419.33;170.10;;;;;;;;;;5050312;28;20214;-68
2023/10/23 04:43:00;;;;;;;437.60;180.67;;;;;;;;;;5053329;28;20217;-68
2023/10/23 04:45:26;;;;;;;443.33;181.40;;;;;;;;;;5053181;28;20218;-68
2023/10/23 04:47:52;;;;;;;429.80;179.00;;;;;;;;;;5052802;28;20182;-68
2023/10/23 04:50:18;;;;;;;459.00;196.47;;;;;;;;;;5049437;28;20261;-68
2023/10/23 04:52:44;;;;;;;420.77;174.97;;;;;;;;;;5054889;28;20230;-68
2023/10/23 04:55:10;;;;;;;416.53;170.30;;;;;;;;;;5049582;28;20218;-68
2023/10/23 04:57:36;;;;;;;459.43;196.00;;;;;;;;;;5052951;28;20218;-67
2023/10/23 05:00:02;;;;;;;412.67;169.60;;;;;;;;;;5050042;28;20203;-67
2023/10/23 05:02:28;;;;;;;455.07;197.47;;;;;;;;;;5051706;28;20673;-68
2023/10/23 05:04:54;;;;;;;432.57;182.67;;;;;;;;;;5052567;28;20289;-68
2023/10/23 05:07:20;;;;;;;435.13;184.77;;;;;;;;;;5052285;28;20210;-68
2023/10/23 05:09:46;;;;;;;391.37;159.23;;;;;;;;;;5057491;28;20203;-68
2023/10/23 05:12:12;;;;;;;418.73;170.93;;;;;;;;;;5055551;28;20179;-67
2023/10/23 05:14:38;;;;;;;435.07;182.40;;;;;;;;;;5049130;28;20183;-68
2023/10/23 05:17:04;;;;;;;405.73;164.37;;;;;;;;;;5052351;28;20238;-68
2023/10/23 05:19:29;;;;;;;427.73;175.70;;;;;;;;;;5054076;28;20772;-68
2023/10/23 05:21:55;;;;;;;410.50;166.60;;;;;;;;;;5056761;28;20326;-68
2023/10/23 05:24:21;;;;;;;422.57;178.20;;;;;;;;;;5049367;28;20293;-68
2023/10/23 05:26:47;;;;;;;429.70;182.30;;;;;;;;;;5055604;28;20935;-67
2023/10/23 05:29:13;;;;;;;402.13;168.07;;;;;;;;;;5052018;28;20215;-69
2023/10/23 05:31:39;;;;;;;404.10;184.30;;;;;;;;;;5060837;28;20573;-68
2023/10/23 05:34:06;;;;;;;391.47;158.60;;;10.60;99.90;;;;;;5047562;28;20346;-70
2023/10/23 05:36:32;;;;;;;417.03;177.53;;;;;;;;;;5037897;28;21362;-70
2023/10/23 05:38:58;;;;;;;408.10;172.30;;;;;;;;;;5060130;28;20549;-71
2023/10/23 05:41:24;;;;;;;473.20;223.77;;;;;;;;;;5055798;28;20221;-72
2023/10/23 05:43:50;;;;;;;447.90;197.23;;;;;;;;;;5049032;28;20211;-75
2023/10/23 05:46:20;;;;;;;405.90;170.23;;;;;;;;;;5051917;28;20720;-74
2023/10/23 05:48:46;;;;;;;378.03;156.07;;;;;;;;;;5054016;28;20215;-72
2023/10/23 05:51:12;;;;;;;397.97;166.43;;;;;;;;;;5053838;28;20186;-72
2023/10/23 05:53:38;;;;;;;419.13;182.20;;;;;;;;;;5067355;28;20187;-71
2023/10/23 05:56:05;;;;;;;401.33;166.33;;;10.80;99.90;;;;;;5064055;28;20228;-71
2023/10/23 05:58:31;;;;;;;419.97;174.67;;;;;;;;;;5072060;28;20218;-77
2023/10/23 06:00:57;;;;;;;434.67;190.87;;;;;;;;;;5062520;28;20230;-77
2023/10/23 06:03:23;;;;;;;392.70;171.20;;;;;;;;;;5063601;28;20313;-77
2023/10/23 06:05:49;;;;;;;467.80;221.30;;;;;;;;;;5062610;28;20230;-77
2023/10/23 06:08:15;;;;;;;427.30;179.93;;;;;;;;;;5052614;28;20208;-77
2023/10/23 06:10:42;;;;;;;385.60;172.13;;;;;;;;;;5064214;28;20695;-72
2023/10/23 06:13:07;;;;;;;434.57;182.67;;;;;;;;;;5050643;28;20246;-75
2023/10/23 06:15:34;;;;;;;468.40;199.57;;;;;;;;;;5050165;28;20718;-72
2023/10/23 06:18:00;;;;;;;424.53;177.77;;;;;;;;;;5051853;28;20186;-75
2023/10/23 06:20:26;;;;;;;419.33;176.67;;;;;;;;;;5056436;28;21701;-75
2023/10/23 06:22:52;;;;;;;433.20;182.80;;;;;;;;;;5033633;28;20210;-75
2023/10/23 06:25:17;;;;;;;475.27;205.87;;;;;;;;;;5050105;28;20275;-77
2023/10/23 06:27:43;;;;;;;402.50;160.33;;;;;;;;;;5052883;28;20283;-77
2023/10/23 06:30:10;;;;;;;483.63;209.57;;;;;;;;;;5051016;28;20194;-77
2023/10/23 06:32:35;;;;;;;432.40;174.50;;;;;;;;;;5052855;28;20202;-76
2023/10/23 06:35:04;;;;;;;475.20;202.00;;;;;;;;;;5055537;28;20222;-81
2023/10/23 06:37:31;;;;;;;444.87;183.90;;;;;;;;;;5056932;28;20222;-74
2023/10/23 06:39:57;;;;;;;415.90;171.20;;;;;;;;;;5058455;28;20621;-75
2023/10/23 06:42:25;;;;;;;453.93;186.10;;;;;;;;;;5058050;28;20832;-74
2023/10/23 06:44:51;;;;;;;438.70;185.67;;;;;;;;;;5055399;28;20189;-73
2023/10/23 06:47:17;;;;;;;440.20;176.43;;;;;;;;;;5054389;28;20229;-74
2023/10/23 06:49:47;;;;;;;431.10;175.60;;;;;;;;;;5057607;28;20492;-73
2023/10/23 06:52:14;;;;;;;431.97;175.40;;;;;;;;;;5055444;28;20202;-75
2023/10/23 06:54:40;;;;;;;451.90;182.33;;;;;;;;;;5068526;28;20542;-76
2023/10/23 06:57:09;;;;;;;402.17;159.33;;;;;;;;;;5063253;28;20206;-76
2023/10/23 06:59:37;;;;;;;450.43;187.33;;;11.00;99.90;;;;;;5061643;28;20201;-75
2023/10/23 07:02:05;;;;;;;417.83;165.37;;;;;;;;;;5051635;28;20205;-75
2023/10/23 07:04:31;;;;;;;456.70;189.37;;;;;;;;;;5050917;28;20224;-76
2023/10/23 07:06:58;;;;;;;475.97;205.97;;;;;;;;;;5058966;28;20246;-76
2023/10/23 07:09:24;;;;;;;483.53;208.80;;;;;;;;;;5060074;28;20297;-71
2023/10/23 07:11:50;;;;;;;410.13;166.80;;;;;;;;;;5076720;28;20748;-73
2023/10/23 07:14:18;;;;;;;434.47;178.53;;;;;;;;;;5066397;28;20305;-73
2023/10/23 07:16:47;;;;;;;414.17;168.13;;;;;;;;;;5071101;28;20231;-76
2023/10/23 07:19:14;;;;;;;404.03;161.23;;;;;;;;;;5074159;28;20248;-76
2023/10/23 07:21:42;;;;;;;422.47;169.30;;;;;;;;;;5080362;28;20215;-77
2023/10/23 07:24:08;;;;;;;421.53;167.33;;;;;;;;;;5064277;28;20560;-76
2023/10/23 07:26:34;;;;;;;464.97;193.60;;;;;;;;;;5043833;28;20202;-75
2023/10/23 07:29:00;;;;;;;436.17;178.63;;;;;;;;;;5057769;28;20566;-75
2023/10/23 07:31:27;;;;;;;449.43;186.33;;;;;;;;;;5059347;28;20256;-75
2023/10/23 07:33:53;;;;;;;459.63;196.93;;;;;;;;;;5065054;28;20308;-75
2023/10/23 07:36:19;;;;;;;445.67;190.63;;;;;;;;;;5061373;28;20286;-77
2023/10/23 07:38:45;;;;;;;418.17;166.73;;;;;;;;;;5062166;28;20630;-75
2023/10/23 07:41:12;;;;;;;431.10;174.43;;;;;;;;;;5053994;28;20233;-75
2023/10/23 07:43:38;;;;;;;438.47;177.93;;;;;;;;;;5063428;28;20296;-75
2023/10/23 07:46:11;;;;;;;428.93;172.67;;;;;;;;;;5057286;28;20296;-76
2023/10/23 07:48:37;;;;;;;462.43;197.40;;;;;;;;;;5048064;28;20272;-75
2023/10/23 07:51:03;;;;;;;420.20;167.63;;;;;;;;;;5054074;28;20183;-75
2023/10/23 07:53:35;;;;;;;430.63;176.93;;;;;;;;;;5060313;28;20286;-75
2023/10/23 07:56:04;;;;;;;418.73;168.30;;;;;;;;;;5054721;28;20789;-75
2023/10/23 07:58:30;;;;;;;463.63;193.80;;;;;;;;;;5051540;28;20275;-75
2023/10/23 08:01:08;;;;;;;455.90;188.60;;;;;;;;;;5055992;28;20249;-76
2023/10/23 08:03:36;;;;;;;432.13;175.63;;;12.00;99.90;;;;;;5055224;28;20213;-75
2023/10/23 08:06:03;;;;;;;450.97;189.80;;;;;;;;;;5053254;28;20905;-75
2023/10/23 08:08:30;;;;;;;513.70;227.07;;;;;;;;;;5051441;28;20794;-75
2023/10/23 08:10:56;;;;;;;425.63;172.90;;;;;;;;;;5055079;28;20234;-75
2023/10/23 08:13:22;;;;;;;409.97;163.27;;;;;;;;;;5072440;28;20699;-76
2023/10/23 08:15:49;;;;;;;408.73;165.17;;;;;;;;;;5066639;28;20782;-75
2023/10/23 08:18:15;;;;;;;439.83;180.77;;;;;;;;;;5048406;28;20174;-76
2023/10/23 08:20:41;;;;;;;398.53;156.87;;;;;;;;;;5064730;28;20691;-75
2023/10/23 08:23:07;;;;;;;474.67;202.83;;;;;;;;;;5048779;28;20206;-76
2023/10/23 08:25:33;;;;;;;462.50;193.90;;;;;;;;;;5046437;28;20228;-75
2023/10/23 08:27:59;;;;;;;440.67;182.03;;;;;;;;;;5052179;28;20224;-75
2023/10/23 08:30:25;;;;;;;457.17;192.73;;;;;;;;;;5051839;28;20864;-76
2023/10/23 08:32:51;;;;;;;441.60;181.77;;;;;;;;;;5061033;28;20322;-76
2023/10/23 08:35:19;;;;;;;422.23;173.70;;;;;;;;;;5048406;28;20208;-75
2023/10/23 08:37:45;;;;;;;404.93;163.70;;;;;;;;;;5061774;28;20214;-76
2023/10/23 08:40:11;;;;;;;473.07;204.80;;;;;;;;;;5042412;28;20223;-76
2023/10/23 08:42:39;;;;;;;470.73;198.90;;;;;;;;;;5063031;28;21660;-74
2023/10/23 08:45:05;;;;;;;431.70;180.93;;;;;;;;;;5058228;28;20610;-76
2023/10/23 08:47:31;;;;;;;455.53;194.93;;;;;;;;;;5041826;28;21168;-76
2023/10/23 08:50:01;;;;;;;426.43;179.83;;;;;;;;;;5056403;28;20266;-77
2023/10/23 08:52:32;;;;;;;471.43;205.83;;;;;;;;;;5051176;28;20289;-76
2023/10/23 08:54:58;;;;;;;454.60;201.10;;;;;;;;;;5052977;28;20210;-77
2023/10/23 08:57:25;;;;;;;498.07;216.43;;;;;;;;;;5055967;28;20303;-77
2023/10/23 08:59:51;;;;;;;420.23;174.50;;;;;;;;;;5054204;28;20213;-76
2023/10/23 09:02:17;;;;;;;453.70;193.03;;;;;;;;;;5049239;28;20211;-76
2023/10/23 09:04:43;;;;;;;434.27;180.00;;;;;;;;;;5063035;28;22619;-76
2023/10/23 09:07:09;;;;;;;451.20;190.60;;;;;;;;;;5049869;28;20847;-76
2023/10/23 09:09:35;;;;;;;452.90;194.70;;;;;;;;;;5043559;28;20210;-77
2023/10/23 09:12:03;;;;;;;446.50;191.07;;;;;;;;;;5051761;28;20191;-75
2023/10/23 09:14:31;;;;;;;446.30;188.43;;;;;;;;;;5051243;28;20182;-74
2023/10/23 09:16:59;;;;;;;434.70;181.93;;;14.00;88.20;;;;;;5049320;28;20234;-75
2023/10/23 09:19:25;;;;;;;433.20;183.37;;;;;;;;;;5053579;28;21098;-75
2023/10/23 09:21:56;;;;;;;460.03;198.53;;;;;;;;;;5051949;28;20879;-75
2023/10/23 09:24:22;;;;;;;452.63;198.83;;;;;;;;;;5057661;28;20211;-75
2023/10/23 09:26:50;;;;;;;435.20;192.17;;;14.30;11.10;;;;;;5053086;28;20294;-74
2023/10/23 09:29:16;;;;;;;453.33;193.90;;;;;;;;;;5048038;28;20218;-75
2023/10/23 09:31:42;;;;;;;453.83;199.87;;;;;;;;;;5053869;28;20821;-75
2023/10/23 09:34:08;;;;;;;446.07;197.77;;;14.30;1.00;;;;;;5048733;28;20217;-74
2023/10/23 09:36:36;;;;;;;478.63;216.93;;;14.50;1.00;;;;;;5054278;28;20241;-75
2023/10/23 09:39:02;;;;;;;417.50;178.33;;;;;;;;;;5056572;28;20542;-75
2023/10/23 09:41:30;;;;;;;461.00;204.20;;;;;;;;;;5055478;28;20282;-76
2023/10/23 09:43:57;;;;;;;429.77;190.33;;;14.50;99.90;;;;;;5052452;28;20226;-76
2023/10/23 09:46:25;;;;;;;429.20;185.00;;;14.50;99.90;;;;;;5048178;28;20234;-75
2023/10/23 09:48:52;;;;;;;438.07;190.53;;;;;;;;;;5051044;28;20226;-75
2023/10/23 09:51:19;;;;;;;425.00;182.77;;;;;;;;;;5049740;28;20325;-76
2023/10/23 09:53:49;;;;;;;470.33;207.37;;;14.50;99.90;;;;;;5049870;28;20182;-76
2023/10/23 09:56:21;;;;;;;431.07;187.10;;;14.50;99.90;;;;;;5047252;28;20229;-76
2023/10/23 09:58:56;;;;;;;452.60;198.83;;;14.50;99.90;;;;;;5055514;28;20298;-75
2023/10/23 10:01:27;;;;;;;410.83;177.83;;;;;;;;;;5050963;28;20509;-76
2023/10/23 10:03:57;;;;;;;415.90;180.20;;;14.70;99.90;;;;;;5061564;28;20216;-75
2023/10/23 10:06:25;;;;;;;431.77;187.33;;;14.80;99.90;;;;;;5055096;28;20219;-75
2023/10/23 10:08:51;;;;;;;437.93;190.17;;;;;;;;;;5051426;28;20610;-74
2023/10/23 10:11:18;;;;;;;435.93;190.17;;;;;;;;;;5049179;28;20226;-75
2023/10/23 10:13:46;;;;;;;502.93;233.27;;;14.80;99.90;;;;;;5046000;28;20215;-79
2023/10/23 10:16:12;;;;;;;457.13;205.47;;;;;;;;;;5056462;28;20228;-76
2023/10/23 10:18:39;;;;;;;480.80;216.90;;;;;;;;;;5049391;28;20222;-76
2023/10/23 10:21:10;;;;;;;479.77;215.50;;;14.90;99.90;;;;;;5053562;28;20184;-72
2023/10/23 10:23:36;;;;;;;454.37;205.67;;;;;;;;;;5055176;28;20724;-80
2023/10/23 10:26:03;;;;;;;453.53;202.97;;;16.50;99.90;;;;;;5050412;28;20242;-76
2023/10/23 10:28:29;;;;;;;425.07;188.60;;;15.10;99.10;;;;;;5048853;28;20256;-75
2023/10/23 10:30:54;;;;;;;406.80;177.83;;;;;;;;;;5052063;28;20375;-78
2023/10/23 10:33:29;;;;;;;455.57;208.40;;;15.30;99.90;;;;;;5051640;28;20225;-77
2023/10/23 10:35:59;;;;;;;452.23;205.00;;;;;;;;;;5052981;28;20199;-72
2023/10/23 10:38:27;;;;;;;481.00;220.83;;;15.60;99.90;;;;;;5044493;28;20214;-71
2023/10/23 10:40:55;;;;;;;438.07;194.57;;;15.80;99.90;;;;;;5051346;28;20250;-72
2023/10/23 10:43:39;;;;;;;430.13;192.57;;;15.70;99.90;;;;;;5046959;28;20328;-73
2023/10/23 10:46:15;;;;;;;434.27;201.23;;;15.80;99.90;;;;;;5048845;28;20226;-72
2023/10/23 10:48:42;;;;;;;431.70;194.83;;;;;;;;;;5047621;28;20211;-74
2023/10/23 10:51:09;;;;;;;413.97;186.73;;;;;;;;;;5046183;28;20214;-73
2023/10/23 10:53:38;;;;;;;444.80;205.53;;;;;;;;;;5054830;28;20537;-73
2023/10/23 10:56:08;;;;;;;446.93;206.53;;;;;;;;;;5047803;28;20587;-74
2023/10/23 10:58:34;;;;;;;463.73;217.90;;;;;;;;;;5049642;28;20252;-72
2023/10/23 11:01:01;;;;;;;436.67;200.03;;;;;;;;;;5046570;28;20215;-73
2023/10/23 11:03:27;;;;;;;422.27;188.77;;;;;;;;;;5059606;28;20717;-72
2023/10/23 11:05:53;;;;;;;436.27;200.37;;;16.60;99.90;;;;;;5050383;28;20200;-73
2023/10/23 11:08:18;;;;;;;460.00;214.07;;;;;;;;;;5054506;28;20675;-74
2023/10/23 11:10:46;;;;;;;442.63;199.33;;;;;;;;;;5052523;28;20204;-73
2023/10/23 11:13:16;;;;;;;460.23;212.33;;;;;;;;;;5050024;28;20715;-72
2023/10/23 11:15:42;;;;;;;432.37;196.63;;;;;;;;;;5055661;28;20268;-72
2023/10/23 11:18:08;;;;;;;435.53;200.90;;;;;;;;;;5054373;28;20818;-72
2023/10/23 11:20:35;;;;;;;422.67;194.47;;;;;;;;;;5055494;28;20636;-73
2023/10/23 11:23:01;;;;;;;403.43;186.23;;;15.90;99.90;;;;;;5061076;28;20923;-73
2023/10/23 11:25:28;;;;;;;423.93;191.67;;;;;;;;;;5057835;28;20211;-74
2023/10/23 11:27:57;;;;;;;443.77;198.80;;;;;;;;;;5056953;28;20239;-74
2023/10/23 11:30:27;;;;;;;418.97;185.70;;;;;;;;;;5058761;28;20224;-72
2023/10/23 11:32:53;;;;;;;431.90;198.13;;;;;;;;;;5053323;28;20321;-74
2023/10/23 11:35:19;;;;;;;495.57;243.73;;;16.20;98.90;;;;;;5050047;28;20257;-73
2023/10/23 11:37:47;;;;;;;465.70;224.53;;;;;;;;;;5048908;28;20298;-81
2023/10/23 11:40:13;;;;;;;418.27;195.97;;;;;;;;;;5056283;28;20226;-77
2023/10/23 11:42:49;;;;;;;451.77;209.27;;;;;;;;;;5050188;28;20322;-80
2023/10/23 11:45:19;;;;;;;447.87;205.10;;;;;;;;;;5051600;28;20751;-78
2023/10/23 11:47:45;;;;;;;457.23;210.60;;;;;;;;;;5051806;28;20255;-75
2023/10/23 11:50:15;;;;;;;414.63;187.30;;;;;;;;;;5054665;28;20308;-75
2023/10/23 11:52:45;;;;;;;443.20;204.00;;;;;;;;;;5062378;28;20207;-77
2023/10/23 11:55:12;;;;;;;465.80;221.73;;;;;;;;;;5056172;28;20217;-77
2023/10/23 11:57:40;;;;;;;468.30;218.47;;;;;;;;;;5051039;28;20298;-76
2023/10/23 12:00:11;;;;;;;502.40;242.67;;;;;;;;;;5049937;28;20302;-76
2023/10/23 12:02:37;;;;;;;493.37;239.87;;;;;;;;;;5051352;28;20260;-77
2023/10/23 12:05:03;;;;;;;430.77;205.63;;;;;;;;;;5056948;28;20212;-76
2023/10/23 12:07:29;;;;;;;419.07;194.57;;;;;;;;;;5050179;28;20763;-76
2023/10/23 12:09:55;;;;;;;443.30;206.23;;;;;;;;;;5054509;28;20252;-78
2023/10/23 12:12:21;;;;;;;467.60;227.97;;;;;;;;;;5055431;28;20304;-76
2023/10/23 12:14:47;;;;;;;469.70;232.03;;;;;;;;;;5053682;28;20887;-78
2023/10/23 12:17:13;;;;;;;440.77;206.43;;;;;;;;;;5052365;28;20273;-77
2023/10/23 12:19:39;;;;;;;458.80;218.70;;;;;;;;;;5053032;28;20234;-75
2023/10/23 12:22:04;;;;;;;435.47;221.20;;;;;;;;;;5049437;28;20218;-76
2023/10/23 12:24:31;;;;;;;453.60;215.50;;;;;;;;;;5054743;28;20720;-76
2023/10/23 12:26:56;;;;;;;445.50;216.27;;;;;;;;;;5053828;28;20202;-76
2023/10/23 12:29:22;;;;;;;481.50;238.43;;;;;;;;;;5046940;28;22494;-76
2023/10/23 12:31:48;;;;;;;470.03;225.73;;;;;;;;;;5050105;28;20222;-75
2023/10/23 12:34:14;;;;;;;447.20;210.23;;;;;;;;;;5049016;28;20720;-76
2023/10/23 12:36:40;;;;;;;466.70;222.80;;;;;;;;;;5049661;28;20210;-76
2023/10/23 12:39:06;;;;;;;428.60;202.57;;;;;;;;;;5052130;28;20281;-78
2023/10/23 12:41:32;;;;;;;423.37;201.90;;;;;;;;;;5051500;28;20202;-78
2023/10/23 12:43:58;;;;;;;466.73;225.30;;;;;;;;;;5051609;28;20265;-77
2023/10/23 12:46:24;;;;;;;463.40;226.23;;;;;;;;;;5047054;28;20211;-76
2023/10/23 12:48:50;;;;;;;450.43;220.20;;;;;;;;;;5052401;28;20255;-76
2023/10/23 12:51:16;;;;;;;483.10;243.67;;;;;;;;;;5049204;28;20275;-78
2023/10/23 12:53:42;;;;;;;475.43;237.50;;;;;;;;;;5057980;28;20638;-77
2023/10/23 12:56:08;;;;;;;491.30;249.37;;;;;;;;;;5057012;28;20217;-79
2023/10/23 12:58:34;;;;;;;435.50;212.60;;;;;;;;;;5055879;28;20210;-76
2023/10/23 13:01:00;;;;;;;478.80;240.80;;;;;;;;;;5055710;28;20223;-76
2023/10/23 13:03:26;;;;;;;446.17;216.33;;;;;;;;;;5051753;28;20211;-77
2023/10/23 13:05:52;;;;;;;543.53;282.50;;;;;;;;;;5043940;28;20202;-79
2023/10/23 13:08:18;;;;;;;448.40;223.20;;;;;;;;;;5054576;28;20219;-77
2023/10/23 13:10:44;;;;;;;483.07;246.63;;;;;;;;;;5055583;28;20210;-79
2023/10/23 13:13:10;;;;;;;433.47;220.57;;;;;;;;;;5046958;28;20207;-79
2023/10/23 13:15:36;;;;;;;417.67;210.10;;;;;;;;;;5048698;28;20225;-79
2023/10/23 13:18:03;;;;;;;444.37;234.63;;;;;;;;;;5049946;28;20770;-77
2023/10/23 13:20:29;;;;;;;428.07;214.60;;;;;;;;;;5053620;28;20216;-76
2023/10/23 13:22:55;;;;;;;483.17;252.37;;;;;;;;;;5041241;28;20210;-77
2023/10/23 13:28:07;;;;;;;480.07;240.40;;;;;;;;;;5050426;28;20650;-50
2023/10/23 13:30:33;;;;;;;458.13;235.97;;;;;;;;;;5016839;28;20706;-50
2023/10/23 13:32:59;;;;;;;443.00;230.27;;;;;;;;;;5020778;28;20186;-50
2023/10/23 13:35:25;;;;;;;477.67;250.47;;;19.90;85.20;;;;;;5018084;28;20216;-50
2023/10/23 13:37:51;;;;;;;472.97;250.47;;;;;;;;;;5017283;28;20224;-51